Killam, Canada
Current Conditions -  °F | °C
As of 8:00 AM on Saturday 20 Dec 2014 (Local Time) from CYEG Reporting Station
Few Clouds Few Clouds  
Wind Chill:   Ceiling: Unl
Heat Index:   Visibility: 15mi
Dew Point:   Wind: 5mph
Humidity: 85%   Direction: 180°S
Pressure: 29.67"   Gusts: NA
Location:  52.78°N, 111.85°W
Report Text: CYEG 201500Z 18004KT 15SM FEW170 FEW250 M13/M15 A2967 RMK AC1CI1 AC TR CI TR FROIN SLP094
Loading
Personal Weather Stations






























Interactive Weather Map New forecast layout! Learn more

10-Day Weather Forecast

Advertisements
Track Severe Weather on mobile